Time;durP1;ratioP1;P1;durP2;ratioP2;P2;SDS_P1;SDS_P2;PMS_P1;PMS_P2;Temp;Humidity;BMP_temperature;BMP_pressure;BME280_temperature;BME280_humidity;BME280_pressure;Samples;Min_cycle;Max_cycle;Signal;HPM_P1;HPM_P2
2022/03/29 00:00:22;;;;;;;;;;;;;;;;;;5055734;28;19917;-48
2022/03/29 00:02:47;;;;;;;;;;;;;;;;;;5055589;28;19908;-48
2022/03/29 00:05:12;;;;;;;;;;;;;;;;;;5055523;28;19919;-48
2022/03/29 00:07:37;;;;;;;;;;;;;;;;;;5054699;28;20352;-48
2022/03/29 00:10:04;;;;;;;;;;;;;;;;;;5055540;28;19909;-48
2022/03/29 00:12:30;;;;;;;;;;;;;;;;;;5055439;28;19916;-47
2022/03/29 00:14:55;;;;;;;;;;;;;;;;;;5055356;28;19909;-49
2022/03/29 00:17:20;;;;;;;;;;;;;;;;;;5055573;28;19916;-49
2022/03/29 00:19:45;;;;;;;;;;;;;;;;;;5055313;28;19909;-47
2022/03/29 00:22:10;;;;;;;;;;;;;;;;;;5055312;28;19931;-47
2022/03/29 00:24:35;;;;;;;;;;;;;;;;;;5055068;28;19927;-49
2022/03/29 00:27:00;;;;;;;;;;;;;;;;;;5055179;28;20312;-49
2022/03/29 00:29:25;;;;;;;;;;;;;;;;;;5055249;28;20959;-47
2022/03/29 00:31:50;;;;;;;;;;;;;;;;;;5055196;28;19908;-48
2022/03/29 00:34:15;;;;;;;;;;;;;;;;;;5053988;28;19904;-48
2022/03/29 00:36:41;;;;;;;;;;;;;;;;;;5055360;28;19909;-48
2022/03/29 00:39:06;;;;;;;;;;;;;;;;;;5055258;28;19979;-50
2022/03/29 00:41:31;;;;;;;;;;;;;;;;;;5055075;28;19909;-49
2022/03/29 00:43:56;;;;;;;;;;;;;;;;;;5054977;28;20279;-49
2022/03/29 00:46:21;;;;;;;;;;;;;;;;;;5054823;28;19920;-48
2022/03/29 00:48:46;;;;;;;;;;;;;;;;;;5054625;28;19909;-48
2022/03/29 00:51:12;;;;;;;;;;;;;;;;;;5054817;28;19912;-48
2022/03/29 00:53:37;;;;;;;;;;;;;;;;;;5054720;28;19941;-47
2022/03/29 00:56:02;;;;;;;;;;;;;;;;;;5054960;28;20380;-47
2022/03/29 00:58:27;;;;;;;;;;;;;;;;;;5054868;28;19909;-49
2022/03/29 01:00:53;;;;;;;;;;;;;;;;;;5054696;28;20004;-50
2022/03/29 01:03:18;;;;;;;;;;;;;;;;;;5054710;28;19946;-49
2022/03/29 01:05:43;;;;;;;;;;;;;;;;;;5054486;28;19927;-47
2022/03/29 01:08:08;;;;;;;;;;;;;;;;;;5054576;28;19913;-49
2022/03/29 01:10:34;;;;;;;;;;;;;;;;;;5054575;28;20368;-50
2022/03/29 01:12:59;;;;;;;;;;;;;;;;;;5054622;28;19917;-49
2022/03/29 01:15:24;;;;;;;;;;;;;;;;;;5054607;28;19909;-48
2022/03/29 01:17:49;;;;;;;;;;;;;;;;;;5054625;28;19916;-48
2022/03/29 01:20:15;;;;;;;;;;;;;;;;;;5054348;28;19916;-49
2022/03/29 01:22:40;;;;;;;;;;;;;;;;;;5054281;28;19909;-48
2022/03/29 01:25:05;;;;;;;;;;;;;;;;;;5081160;22;20299;-48
2022/03/29 01:27:31;;;;;;;;;;;;;;;;;;5074297;28;20309;-48
2022/03/29 01:29:57;;;;;;;;;;;;;;;;;;5074307;28;19908;-50
2022/03/29 01:32:23;;;;;;;;;;;;;;;;;;5074405;28;20011;-48
2022/03/29 01:34:48;;;;;;;;;;;;;;;;;;5074288;28;19999;-50
2022/03/29 01:37:13;;;;;;;;;;;;;;;;;;5074385;28;19940;-50
2022/03/29 01:39:38;;;;;;;;;;;;;;;;;;5074205;28;19916;-48
2022/03/29 01:42:03;;;;;;;;;;;;;;;;;;5074505;28;19909;-50
2022/03/29 01:44:28;;;;;;;;;;;;;;;;;;5074400;28;20321;-48
2022/03/29 01:46:54;;;;;;;;;;;;;;;;;;5074059;28;19940;-48
2022/03/29 01:49:19;;;;;;;;;;;;;;;;;;5074237;28;20364;-48
2022/03/29 01:51:44;;;;;;;;;;;;;;;;;;5074136;28;19909;-48
2022/03/29 01:54:09;;;;;;;;;;;;;;;;;;5074215;28;20287;-48
2022/03/29 01:56:36;;;;;;;;;;;;;;;;;;5074149;28;19911;-49
2022/03/29 01:59:01;;;;;;;;;;;;;;;;;;5074222;28;19909;-48
2022/03/29 02:01:26;;;;;;;;;;;;;;;;;;5074294;28;20290;-48
2022/03/29 02:03:51;;;;;;;;;;;;;;;;;;5073918;28;20421;-50
2022/03/29 02:06:16;;;;;;;;;;;;;;;;;;5074089;28;19970;-48
2022/03/29 02:08:42;;;;;;;;;;;;;;;;;;5074206;28;19971;-48
2022/03/29 02:11:07;;;;;;;;;;;;;;;;;;5073951;28;19931;-48
2022/03/29 02:13:32;;;;;;;;;;;;;;;;;;5073051;28;20007;-50
2022/03/29 02:15:57;;;;;;;;;;;;;;;;;;5055268;28;20003;-48
2022/03/29 02:18:22;;;;;;;;;;;;;;;;;;5053898;28;19919;-48
2022/03/29 02:20:47;;;;;;;;;;;;;;;;;;5053958;28;19909;-48
2022/03/29 02:23:15;;;;;;;;;;;;;;;;;;5054271;28;19905;-49
2022/03/29 02:25:41;;;;;;;;;;;;;;;;;;5053994;28;19916;-48
2022/03/29 02:28:06;;;;;;;;;;;;;;;;;;5054150;28;20482;-47
2022/03/29 02:30:32;;;;;;;;;;;;;;;;;;5054114;28;19931;-47
2022/03/29 02:32:58;;;;;;;;;;;;;;;;;;5057678;28;19916;-48
2022/03/29 02:35:23;;;;;;;;;;;;;;;;;;5057347;28;20288;-47
2022/03/29 02:37:48;;;;;;;;;;;;;;;;;;5057341;28;20378;-47
2022/03/29 02:40:13;;;;;;;;;;;;;;;;;;5057506;28;20360;-47
2022/03/29 02:42:38;;;;;;;;;;;;;;;;;;5057301;28;19944;-47
2022/03/29 02:45:04;;;;;;;;;;;;;;;;;;5057029;28;19917;-47
2022/03/29 02:47:29;;;;;;;;;;;;;;;;;;5057210;28;19947;-47
2022/03/29 02:49:54;;;;;;;;;;;;;;;;;;5057143;28;19955;-47
2022/03/29 02:52:19;;;;;;;;;;;;;;;;;;5057109;28;19909;-47
2022/03/29 02:54:44;;;;;;;;;;;;;;;;;;5057083;28;19916;-47
2022/03/29 02:57:10;;;;;;;;;;;;;;;;;;5057137;28;20348;-47
2022/03/29 02:59:35;;;;;;;;;;;;;;;;;;5057123;28;19905;-47
2022/03/29 03:02:00;;;;;;;;;;;;;;;;;;5057114;28;19916;-48
2022/03/29 03:04:25;;;;;;;;;;;;;;;;;;5057179;28;20311;-47
2022/03/29 03:06:50;;;;;;;;;;;;;;;;;;5057032;28;19913;-47
2022/03/29 03:09:15;;;;;;;;;;;;;;;;;;5056864;28;19962;-49
2022/03/29 03:11:40;;;;;;;;;;;;;;;;;;5056929;28;19912;-48
2022/03/29 03:14:05;;;;;;;;;;;;;;;;;;5056790;28;19909;-49
2022/03/29 03:16:31;;;;;;;;;;;;;;;;;;5056781;28;19999;-49
2022/03/29 03:18:56;;;;;;;;;;;;;;;;;;5056790;28;19909;-48
2022/03/29 03:21:21;;;;;;;;;;;;;;;;;;5062177;28;19915;-47
2022/03/29 03:23:46;;;;;;;;;;;;;;;;;;5074989;28;19923;-48
2022/03/29 03:26:11;;;;;;;;;;;;;;;;;;5076455;28;20351;-48
2022/03/29 03:28:36;;;;;;;;;;;;;;;;;;5076486;28;19909;-50
2022/03/29 03:31:01;;;;;;;;;;;;;;;;;;5076596;28;19908;-49
2022/03/29 03:33:26;;;;;;;;;;;;;;;;;;5076496;28;19915;-48
2022/03/29 03:35:51;;;;;;;;;;;;;;;;;;5076346;28;20423;-47
2022/03/29 03:38:16;;;;;;;;;;;;;;;;;;5076370;28;20350;-47
2022/03/29 03:40:42;;;;;;;;;;;;;;;;;;5076281;28;19912;-47
2022/03/29 03:43:07;;;;;;;;;;;;;;;;;;5076279;28;19970;-48
2022/03/29 03:45:32;;;;;;;;;;;;;;;;;;5076154;28;19948;-48
2022/03/29 03:47:57;;;;;;;;;;;;;;;;;;5076034;28;19915;-50
2022/03/29 03:50:22;;;;;;;;;;;;;;;;;;5076256;28;19919;-48
2022/03/29 03:52:49;;;;;;;;;;;;;;;;;;5076109;28;19913;-48
2022/03/29 03:55:14;;;;;;;;;;;;;;;;;;5076301;28;19909;-48
2022/03/29 03:57:39;;;;;;;;;;;;;;;;;;5076172;28;19915;-48
2022/03/29 04:00:04;;;;;;;;;;;;;;;;;;5076055;28;19908;-50
2022/03/29 04:02:30;;;;;;;;;;;;;;;;;;5076247;28;19951;-48
2022/03/29 04:04:55;;;;;;;;;;;;;;;;;;5076031;28;19913;-47
2022/03/29 04:07:20;;;;;;;;;;;;;;;;;;5076048;28;19936;-47
2022/03/29 04:09:45;;;;;;;;;;;;;;;;;;5076018;28;19912;-47
2022/03/29 04:12:10;;;;;;;;;;;;;;;;;;5075967;28;19911;-47
2022/03/29 04:14:36;;;;;;;;;;;;;;;;;;5075763;28;19912;-48
2022/03/29 04:17:01;;;;;;;;;;;;;;;;;;5075610;28;19938;-47
2022/03/29 04:19:27;;;;;;;;;;;;;;;;;;5075502;28;19995;-48
2022/03/29 04:21:52;;;;;;;;;;;;;;;;;;5075536;28;19969;-48
2022/03/29 04:24:17;;;;;;;;;;;;;;;;;;5075344;28;19963;-47
2022/03/29 04:26:42;;;;;;;;;;;;;;;;;;5075421;28;19919;-47
2022/03/29 04:29:07;;;;;;;;;;;;;;;;;;5075430;28;20291;-49
2022/03/29 04:31:32;;;;;;;;;;;;;;;;;;5075539;28;19931;-48
2022/03/29 04:33:59;;;;;;;;;;;;;;;;;;5075374;28;20306;-48
2022/03/29 04:36:24;;;;;;;;;;;;;;;;;;5074969;28;19923;-48
2022/03/29 04:38:50;;;;;;;;;;;;;;;;;;5075509;28;19983;-48
2022/03/29 04:41:15;;;;;;;;;;;;;;;;;;5075214;28;19916;-47
2022/03/29 04:43:40;;;;;;;;;;;;;;;;;;5075023;28;19916;-49
2022/03/29 04:46:05;;;;;;;;;;;;;;;;;;5075251;28;19966;-50
2022/03/29 04:48:31;;;;;;;;;;;;;;;;;;5075029;28;19970;-48
2022/03/29 04:50:56;;;;;;;;;;;;;;;;;;5074910;28;19995;-50
2022/03/29 04:53:21;;;;;;;;;;;;;;;;;;5074848;28;19992;-48
2022/03/29 04:55:46;;;;;;;;;;;;;;;;;;5074723;28;19912;-48
2022/03/29 04:58:11;;;;;;;;;;;;;;;;;;5074878;28;19909;-47
2022/03/29 05:00:37;;;;;;;;;;;;;;;;;;5073252;28;19943;-47
2022/03/29 05:03:02;;;;;;;;;;;;;;;;;;5074860;28;19938;-49
2022/03/29 05:05:27;;;;;;;;;;;;;;;;;;5074654;28;19912;-48
2022/03/29 05:07:52;;;;;;;;;;;;;;;;;;5074997;28;19981;-50
2022/03/29 05:10:18;;;;;;;;;;;;;;;;;;5074760;28;20351;-47
2022/03/29 05:12:43;;;;;;;;;;;;;;;;;;5077479;28;19909;-54
2022/03/29 05:15:08;;;;;;;;;;;;;;;;;;5077655;28;19916;-52
2022/03/29 05:17:34;;;;;;;;;;;;;;;;;;5077893;28;20268;-53
2022/03/29 05:19:59;;;;;;;;;;;;;;;;;;5076059;28;19920;-52
2022/03/29 05:22:24;;;;;;;;;;;;;;;;;;5063179;28;20284;-52
2022/03/29 05:24:49;;;;;;;;;;;;;;;;;;5067881;28;20291;-52
2022/03/29 05:27:14;;;;;;;;;;;;;;;;;;5070520;28;19912;-52
2022/03/29 05:29:39;;;;;;;;;;;;;;;;;;5066302;28;19920;-53
2022/03/29 05:32:05;;;;;;;;;;;;;;;;;;5065710;28;19930;-51
2022/03/29 05:34:30;;;;;;;;;;;;;;;;;;5069136;28;19920;-50
2022/03/29 05:36:55;;;;;;;;;;;;;;;;;;5070654;28;19943;-53
2022/03/29 05:39:20;;;;;;;;;;;;;;;;;;5067673;28;19912;-53
2022/03/29 05:41:45;;;;;;;;;;;;;;;;;;5070687;28;20279;-54
2022/03/29 05:44:10;;;;;;;;;;;;;;;;;;5064043;28;20011;-52
2022/03/29 05:49:22;;;;;;;;;;;;;;;;;;5060516;28;20402;-52
2022/03/29 05:51:49;;;;;;;;;;;;;;;;;;5061935;28;19916;-51
2022/03/29 05:54:14;;;;;;;;;;;;;;;;;;5065123;28;19939;-53
2022/03/29 05:56:39;;;;;;;;;;;;;;;;;;5060547;28;19913;-52
2022/03/29 05:59:05;;;;;;;;;;;;;;;;;;5057231;28;19919;-51
2022/03/29 06:01:30;;;;;;;;;;;;;;;;;;5045992;28;19935;-51
2022/03/29 06:03:55;;;;;;;;;;;;;;;;;;5042892;28;19928;-52
2022/03/29 06:06:21;;;;;;;;;;;;;;;;;;5052377;28;19942;-52
2022/03/29 06:08:46;;;;;;;;;;;;;;;;;;5045321;28;20299;-53
2022/03/29 06:11:12;;;;;;;;;;;;;;;;;;5047986;28;20601;-52
2022/03/29 06:13:38;;;;;;;;;;;;;;;;;;5030225;28;19920;-53
2022/03/29 06:16:03;;;;;;;;;;;;;;;;;;5014592;28;20059;-53
2022/03/29 06:18:28;;;;;;;;;;;;;;;;;;4981132;28;20028;-51
2022/03/29 06:20:53;;;;;;;;;;;;;;;;;;4946194;28;21621;-52
2022/03/29 06:23:19;;;;;;;;;;;;;;;;;;4889656;28;21670;-51
2022/03/29 06:25:44;;;;;;;;;;;;;;;;;;4853213;28;21755;-51
2022/03/29 06:28:10;;;;;;;;;;;;;;;;;;4810040;28;19920;-54
2022/03/29 06:30:36;;;;;;;;;;;;;;;;;;4825966;28;20395;-53
2022/03/29 06:33:02;;;;;;;;;;;;;;;;;;4855756;28;19920;-53
2022/03/29 06:35:27;;;;;;;;;;;;;;;;;;4906691;28;20852;-52
2022/03/29 06:37:52;;;;;;;;;;;;;;;;;;4960318;28;21382;-51
2022/03/29 06:40:17;;;;;;;;;;;;;;;;;;4958497;28;19920;-52
2022/03/29 06:42:42;;;;;;;;;;;;;;;;;;4989700;28;19920;-53
2022/03/29 06:45:08;;;;;;;;;;;;;;;;;;4998098;28;19983;-51
2022/03/29 06:47:33;;;;;;;;;;;;;;;;;;4999950;28;21201;-52
2022/03/29 06:49:58;;;;;;;;;;;;;;;;;;4985011;28;19968;-53
2022/03/29 06:52:26;;;;;;;;;;;;;;;;;;4969080;28;20164;-54
2022/03/29 06:54:51;;;;;;;;;;;;;;;;;;4951458;28;22466;-49
2022/03/29 06:57:16;;;;;;;;;;;;;;;;;;4968250;28;20150;-54
2022/03/29 06:59:41;;;;;;;;;;;;;;;;;;4965995;28;19926;-53
2022/03/29 07:02:07;;;;;;;;;;;;;;;;;;4937010;28;19920;-52
2022/03/29 07:04:32;;;;;;;;;;;;;;;;;;4945226;28;20022;-51
2022/03/29 07:06:57;;;;;;;;;;;;;;;;;;4906442;28;19925;-51
2022/03/29 07:12:06;;;;;;;;;;;;;;;;;;4837647;28;20726;-53
2022/03/29 07:14:32;;;;;;;;;;;;;;;;;;4813303;28;19925;-53
2022/03/29 07:16:57;;;;;;;;;;;;;;;;;;4797411;28;19920;-53
2022/03/29 07:19:23;;;;;;;;;;;;;;;;;;4694201;28;20729;-53
2022/03/29 07:21:49;;;;;;;;;;;;;;;;;;4659982;28;22110;-53
2022/03/29 07:24:15;;;;;;;;;;;;;;;;;;4625272;28;23768;-54
2022/03/29 07:26:40;;;;;;;;;;;;;;;;;;4696794;28;20681;-53
2022/03/29 07:29:05;;;;;;;;;;;;;;;;;;4790242;28;20991;-53
2022/03/29 07:31:30;;;;;;;;;;;;;;;;;;4830787;28;22045;-53
2022/03/29 07:33:55;;;;;;;;;;;;;;;;;;4821413;28;19969;-54
2022/03/29 07:36:20;;;;;;;;;;;;;;;;;;4839096;28;20363;-52
2022/03/29 07:38:45;;;;;;;;;;;;;;;;;;4862401;28;19936;-56
2022/03/29 07:41:10;;;;;;;;;;;;;;;;;;4844810;28;19985;-53
2022/03/29 07:43:36;;;;;;;;;;;;;;;;;;4863348;28;20616;-54
2022/03/29 07:46:01;;;;;;;;;;;;;;;;;;4870992;28;21231;-53
2022/03/29 07:48:26;;;;;;;;;;;;;;;;;;4857847;28;20058;-53
2022/03/29 07:50:51;;;;;;;;;;;;;;;;;;4818068;28;20042;-55
2022/03/29 07:53:16;;;;;;;;;;;;;;;;;;4830198;28;20683;-54
2022/03/29 07:55:41;;;;;;;;;;;;;;;;;;4860384;22;21265;-52
2022/03/29 07:58:07;;;;;;;;;;;;;;;;;;4822605;28;23375;-53
2022/03/29 08:00:32;;;;;;;;;;;;;;;;;;4796262;28;20152;-52
2022/03/29 08:02:58;;;;;;;;;;;;;;;;;;4780222;28;22393;-53
2022/03/29 08:05:24;;;;;;;;;;;;;;;;;;4775631;28;20754;-53
2022/03/29 08:07:49;;;;;;;;;;;;;;;;;;4782452;28;20680;-53
2022/03/29 08:10:14;;;;;;;;;;;;;;;;;;4759129;28;19920;-53
2022/03/29 08:12:39;;;;;;;;;;;;;;;;;;4666957;28;19920;-52
2022/03/29 08:15:06;;;;;;;;;;;;;;;;;;4764658;28;20390;-54
2022/03/29 08:17:31;;;;;;;;;;;;;;;;;;4772073;28;22225;-56
2022/03/29 08:19:56;;;;;;;;;;;;;;;;;;4766920;28;19958;-54
2022/03/29 08:22:21;;;;;;;;;;;;;;;;;;4788061;28;20039;-53
2022/03/29 08:24:46;;;;;;;;;;;;;;;;;;4746008;28;21502;-53
2022/03/29 08:27:12;;;;;;;;;;;;;;;;;;4703641;28;19925;-52
2022/03/29 08:29:38;;;;;;;;;;;;;;;;;;4515308;28;21702;-53
2022/03/29 08:32:18;;;;;;;;;;;;;;;;;;4432983;28;25645;-54
2022/03/29 08:34:43;;;;;;;;;;;;;;;;;;4660729;28;20596;-53
2022/03/29 08:37:09;;;;;;;;;;;;;;;;;;4709524;28;20982;-53
2022/03/29 08:39:34;;;;;;;;;;;;;;;;;;4719253;28;21425;-52
2022/03/29 08:41:59;;;;;;;;;;;;;;;;;;4718793;28;23533;-54
2022/03/29 08:44:24;;;;;;;;;;;;;;;;;;4723771;28;19925;-53
2022/03/29 08:46:49;;;;;;;;;;;;;;;;;;4723437;28;21759;-52
2022/03/29 08:49:15;;;;;;;;;;;;;;;;;;4752834;28;20786;-53
2022/03/29 08:51:40;;;;;;;;;;;;;;;;;;4709461;28;24237;-53
2022/03/29 08:54:05;;;;;;;;;;;;;;;;;;4729205;28;19921;-53
2022/03/29 08:56:30;;;;;;;;;;;;;;;;;;4730944;28;19924;-50
2022/03/29 08:58:56;;;;;;;;;;;;;;;;;;4706931;28;20002;-51
2022/03/29 09:01:22;;;;;;;;;;;;;;;;;;4741163;28;19955;-52
2022/03/29 09:03:47;;;;;;;;;;;;;;;;;;4731786;28;19932;-54
2022/03/29 09:06:12;;;;;;;;;;;;;;;;;;4714919;28;19927;-51
2022/03/29 09:08:38;;;;;;;;;;;;;;;;;;4769108;28;19974;-53
2022/03/29 09:11:04;;;;;;;;;;;;;;;;;;4756415;28;25070;-53
2022/03/29 09:13:30;;;;;;;;;;;;;;;;;;4749019;28;20303;-52
2022/03/29 09:15:55;;;;;;;;;;;;;;;;;;4727590;28;23589;-55
2022/03/29 09:18:20;;;;;;;;;;;;;;;;;;4686573;28;20009;-53
2022/03/29 09:20:46;;;;;;;;;;;;;;;;;;4566526;28;23444;-54
2022/03/29 09:23:12;;;;;;;;;;;;;;;;;;4523313;28;21010;-50
2022/03/29 09:25:37;;;;;;;;;;;;;;;;;;4559919;28;23468;-54
2022/03/29 09:28:02;;;;;;;;;;;;;;;;;;4679624;28;20654;-54
2022/03/29 09:30:28;;;;;;;;;;;;;;;;;;4650813;28;26224;-53
2022/03/29 09:32:53;;;;;;;;;;;;;;;;;;4702637;28;19928;-53
2022/03/29 09:35:18;;;;;;;;;;;;;;;;;;4798598;28;19928;-53
2022/03/29 09:37:44;;;;;;;;;;;;;;;;;;4782196;28;20609;-53
2022/03/29 09:40:10;;;;;;;;;;;;;;;;;;4783362;28;21249;-52
2022/03/29 09:42:35;;;;;;;;;;;;;;;;;;4789886;28;20109;-53
2022/03/29 09:45:00;;;;;;;;;;;;;;;;;;4812931;28;19932;-52
2022/03/29 09:47:25;;;;;;;;;;;;;;;;;;4794722;28;19921;-56
2022/03/29 09:49:52;;;;;;;;;;;;;;;;;;4770361;28;20842;-54
2022/03/29 09:52:18;;;;;;;;;;;;;;;;;;4781796;28;20803;-54
2022/03/29 09:54:43;;;;;;;;;;;;;;;;;;4775174;28;32059;-52
2022/03/29 09:57:09;;;;;;;;;;;;;;;;;;4751710;28;19929;-52
2022/03/29 09:59:36;;;;;;;;;;;;;;;;;;4765119;28;21090;-54
2022/03/29 10:02:01;;;;;;;;;;;;;;;;;;4752248;28;20042;-53
2022/03/29 10:04:28;;;;;;;;;;;;;;;;;;4727988;28;20565;-54
2022/03/29 10:06:53;;;;;;;;;;;;;;;;;;4748602;28;20440;-53
2022/03/29 10:09:27;;;;;;;;;;;;;;;;;;4738759;28;20926;-52
2022/03/29 10:11:52;;;;;;;;;;;;;;;;;;4736331;28;19916;-51
2022/03/29 10:14:21;;;;;;;;;;;;;;;;;;4729787;28;22803;-56
2022/03/29 10:16:46;;;;;;;;;;;;;;;;;;4730797;28;19959;-52
2022/03/29 10:19:12;;;;;;;;;;;;;;;;;;4733990;28;21470;-51
2022/03/29 10:21:37;;;;;;;;;;;;;;;;;;4746186;28;19921;-55
2022/03/29 10:24:02;;;;;;;;;;;;;;;;;;4768819;28;26405;-55
2022/03/29 10:26:27;;;;;;;;;;;;;;;;;;4795702;28;19951;-54
2022/03/29 10:28:53;;;;;;;;;;;;;;;;;;4782693;28;20062;-53
2022/03/29 10:31:18;;;;;;;;;;;;;;;;;;4774037;28;19928;-52
2022/03/29 10:33:43;;;;;;;;;;;;;;;;;;4757967;28;23820;-52
2022/03/29 10:36:09;;;;;;;;;;;;;;;;;;4754204;28;20320;-54
2022/03/29 10:38:34;;;;;;;;;;;;;;;;;;4757600;28;19927;-53
2022/03/29 10:40:59;;;;;;;;;;;;;;;;;;4771877;28;19976;-54
2022/03/29 10:43:25;;;;;;;;;;;;;;;;;;4787511;28;19921;-55
2022/03/29 10:45:50;;;;;;;;;;;;;;;;;;4790887;28;21243;-53
2022/03/29 10:48:16;;;;;;;;;;;;;;;;;;4804264;28;23035;-53
2022/03/29 10:50:41;;;;;;;;;;;;;;;;;;4814373;28;19976;-55
2022/03/29 10:53:06;;;;;;;;;;;;;;;;;;4851053;28;19920;-53
2022/03/29 10:55:31;;;;;;;;;;;;;;;;;;4805016;28;26323;-52
2022/03/29 10:57:56;;;;;;;;;;;;;;;;;;4825672;28;20051;-53
2022/03/29 11:00:22;;;;;;;;;;;;;;;;;;4791047;28;19988;-55
2022/03/29 11:02:47;;;;;;;;;;;;;;;;;;4759712;28;20082;-55
2022/03/29 11:05:12;;;;;;;;;;;;;;;;;;4804312;28;19928;-53
2022/03/29 11:07:37;;;;;;;;;;;;;;;;;;4835894;28;20039;-53
2022/03/29 11:10:02;;;;;;;;;;;;;;;;;;4901295;28;19921;-54
2022/03/29 11:12:28;;;;;;;;;;;;;;;;;;4933319;28;20367;-55
2022/03/29 11:14:53;;;;;;;;;;;;;;;;;;4910080;28;22132;-56
2022/03/29 11:17:21;;;;;;;;;;;;;;;;;;4944485;28;19968;-54
2022/03/29 11:19:47;;;;;;;;;;;;;;;;;;4982795;28;20599;-53
2022/03/29 11:22:13;;;;;;;;;;;;;;;;;;4972975;28;19943;-54
2022/03/29 11:24:38;;;;;;;;;;;;;;;;;;4968499;28;19924;-53
2022/03/29 11:27:03;;;;;;;;;;;;;;;;;;4973585;28;19922;-52
2022/03/29 11:29:28;;;;;;;;;;;;;;;;;;4962907;28;19958;-52
2022/03/29 11:31:55;;;;;;;;;;;;;;;;;;4984293;28;19921;-56
2022/03/29 11:34:20;;;;;;;;;;;;;;;;;;4988676;28;19925;-54
2022/03/29 11:36:45;;;;;;;;;;;;;;;;;;4997063;28;19921;-54
2022/03/29 11:39:10;;;;;;;;;;;;;;;;;;5005354;28;20032;-54
2022/03/29 11:41:36;;;;;;;;;;;;;;;;;;4997206;28;20011;-54
2022/03/29 11:44:01;;;;;;;;;;;;;;;;;;4998371;28;19995;-56
2022/03/29 11:46:26;;;;;;;;;;;;;;;;;;5001983;28;19944;-56
2022/03/29 11:48:52;;;;;;;;;;;;;;;;;;5005069;28;20341;-54
2022/03/29 11:51:17;;;;;;;;;;;;;;;;;;5002336;28;19944;-54
2022/03/29 11:53:43;;;;;;;;;;;;;;;;;;5002875;28;19952;-53
2022/03/29 11:56:08;;;;;;;;;;;;;;;;;;5008589;28;19929;-51
2022/03/29 11:58:33;;;;;;;;;;;;;;;;;;5011278;28;19925;-51
2022/03/29 12:00:59;;;;;;;;;;;;;;;;;;5009178;28;19921;-53
2022/03/29 12:03:24;;;;;;;;;;;;;;;;;;5004413;28;19920;-53
2022/03/29 12:05:52;;;;;;;;;;;;;;;;;;4985636;28;19950;-53
2022/03/29 12:08:18;;;;;;;;;;;;;;;;;;4996212;28;21637;-52
2022/03/29 12:10:43;;;;;;;;;;;;;;;;;;4991557;28;20477;-54
2022/03/29 12:13:08;;;;;;;;;;;;;;;;;;4986280;28;22364;-53
2022/03/29 12:15:33;;;;;;;;;;;;;;;;;;4982346;28;20043;-54
2022/03/29 12:20:42;;;;;;;;;;;;;;;;;;4984421;28;19978;-52
2022/03/29 12:23:07;;;;;;;;;;;;;;;;;;4957373;28;20623;-53
2022/03/29 12:25:33;;;;;;;;;;;;;;;;;;4960946;28;20059;-54
2022/03/29 12:27:58;;;;;;;;;;;;;;;;;;4970405;28;19921;-53
2022/03/29 12:30:23;;;;;;;;;;;;;;;;;;4994094;28;19920;-52
2022/03/29 12:32:49;;;;;;;;;;;;;;;;;;5001987;28;21524;-52
2022/03/29 12:35:14;;;;;;;;;;;;;;;;;;4997591;28;19921;-50
2022/03/29 12:37:42;;;;;;;;;;;;;;;;;;5005484;28;19928;-53
2022/03/29 12:40:12;;;;;;;;;;;;;;;;;;5016533;28;19921;-53
2022/03/29 12:42:37;;;;;;;;;;;;;;;;;;5001401;28;19960;-53
2022/03/29 12:45:03;;;;;;;;;;;;;;;;;;5009491;28;19993;-53
2022/03/29 12:47:31;;;;;;;;;;;;;;;;;;5010632;28;23476;-54
2022/03/29 12:49:56;;;;;;;;;;;;;;;;;;5016638;28;20045;-51
2022/03/29 12:52:21;;;;;;;;;;;;;;;;;;5016880;28;19940;-53
2022/03/29 12:54:46;;;;;;;;;;;;;;;;;;5009466;28;19928;-55
2022/03/29 12:57:11;;;;;;;;;;;;;;;;;;5004323;28;19971;-52
2022/03/29 12:59:37;;;;;;;;;;;;;;;;;;5006595;28;19979;-52
2022/03/29 13:02:02;;;;;;;;;;;;;;;;;;4994766;28;19996;-52
2022/03/29 13:04:27;;;;;;;;;;;;;;;;;;5004332;28;19929;-53
2022/03/29 13:06:54;;;;;;;;;;;;;;;;;;5025656;28;19913;-51
2022/03/29 13:09:19;;;;;;;;;;;;;;;;;;5028816;28;19921;-53
2022/03/29 13:11:44;;;;;;;;;;;;;;;;;;5030670;28;19928;-53
2022/03/29 13:14:09;;;;;;;;;;;;;;;;;;5020849;28;19913;-50
2022/03/29 13:16:34;;;;;;;;;;;;;;;;;;5027310;28;19924;-52
2022/03/29 13:18:59;;;;;;;;;;;;;;;;;;5028437;28;19952;-52
2022/03/29 13:21:24;;;;;;;;;;;;;;;;;;5034457;28;20011;-53
2022/03/29 13:23:49;;;;;;;;;;;;;;;;;;5027229;28;19920;-54
2022/03/29 13:26:16;;;;;;;;;;;;;;;;;;5027119;28;20471;-52
2022/03/29 13:28:41;;;;;;;;;;;;;;;;;;5033102;28;19928;-51
2022/03/29 13:31:07;;;;;;;;;;;;;;;;;;5033145;28;19921;-52
2022/03/29 13:33:32;;;;;;;;;;;;;;;;;;5031685;28;19921;-53
2022/03/29 13:35:57;;;;;;;;;;;;;;;;;;5029715;28;19921;-53
2022/03/29 13:38:22;;;;;;;;;;;;;;;;;;5022324;28;19917;-52
2022/03/29 13:40:48;;;;;;;;;;;;;;;;;;5020704;28;19921;-52
2022/03/29 13:43:13;;;;;;;;;;;;;;;;;;5021591;28;20367;-54
2022/03/29 13:45:38;;;;;;;;;;;;;;;;;;5030900;28;20020;-53
2022/03/29 13:48:03;;;;;;;;;;;;;;;;;;5027429;28;19928;-52
2022/03/29 13:50:28;;;;;;;;;;;;;;;;;;5030136;28;19927;-54
2022/03/29 13:52:54;;;;;;;;;;;;;;;;;;5030067;28;19996;-56
2022/03/29 13:55:19;;;;;;;;;;;;;;;;;;5029842;28;19913;-54
2022/03/29 13:57:44;;;;;;;;;;;;;;;;;;5030581;28;19921;-56
2022/03/29 14:00:12;;;;;;;;;;;;;;;;;;5035890;28;19921;-54
2022/03/29 14:02:37;;;;;;;;;;;;;;;;;;5024867;28;19935;-53
2022/03/29 14:05:02;;;;;;;;;;;;;;;;;;5024690;28;19925;-53
2022/03/29 14:07:27;;;;;;;;;;;;;;;;;;5031896;28;19928;-55
2022/03/29 14:09:52;;;;;;;;;;;;;;;;;;5023931;28;21149;-54
2022/03/29 14:12:18;;;;;;;;;;;;;;;;;;5024713;28;22109;-54
2022/03/29 14:14:43;;;;;;;;;;;;;;;;;;5024477;28;20078;-53
2022/03/29 14:17:08;;;;;;;;;;;;;;;;;;5034596;28;20015;-52
2022/03/29 14:19:33;;;;;;;;;;;;;;;;;;5026768;28;19989;-55
2022/03/29 14:21:58;;;;;;;;;;;;;;;;;;5023745;28;19935;-53
2022/03/29 14:24:23;;;;;;;;;;;;;;;;;;5031702;28;19935;-53
2022/03/29 14:26:48;;;;;;;;;;;;;;;;;;5033272;28;19920;-51
2022/03/29 14:29:13;;;;;;;;;;;;;;;;;;5036861;28;19920;-53
2022/03/29 14:31:39;;;;;;;;;;;;;;;;;;5039491;28;19913;-52
2022/03/29 14:34:04;;;;;;;;;;;;;;;;;;5031735;28;19921;-52
2022/03/29 14:36:29;;;;;;;;;;;;;;;;;;5036612;28;20367;-54
2022/03/29 14:38:55;;;;;;;;;;;;;;;;;;5038761;28;20012;-52
2022/03/29 14:41:21;;;;;;;;;;;;;;;;;;5033790;28;19921;-53
2022/03/29 14:43:46;;;;;;;;;;;;;;;;;;5042424;28;20324;-52
2022/03/29 14:46:11;;;;;;;;;;;;;;;;;;5034772;28;20364;-52
2022/03/29 14:48:36;;;;;;;;;;;;;;;;;;5023841;28;20379;-52
2022/03/29 14:51:03;;;;;;;;;;;;;;;;;;5022068;28;20383;-51
2022/03/29 14:53:30;;;;;;;;;;;;;;;;;;5020119;28;19948;-52
2022/03/29 14:55:55;;;;;;;;;;;;;;;;;;5029150;28;19921;-53
2022/03/29 14:58:21;;;;;;;;;;;;;;;;;;5030229;28;19936;-51
2022/03/29 15:00:46;;;;;;;;;;;;;;;;;;5030299;28;19927;-53
2022/03/29 15:03:11;;;;;;;;;;;;;;;;;;5027809;28;20319;-52
2022/03/29 15:05:36;;;;;;;;;;;;;;;;;;5039803;28;19925;-52
2022/03/29 15:08:02;;;;;;;;;;;;;;;;;;5043065;28;20280;-53
2022/03/29 15:10:27;;;;;;;;;;;;;;;;;;5043481;28;19921;-52
2022/03/29 15:12:52;;;;;;;;;;;;;;;;;;5036151;28;20368;-52
2022/03/29 15:15:17;;;;;;;;;;;;;;;;;;5047156;28;19916;-55
2022/03/29 15:17:42;;;;;;;;;;;;;;;;;;5045289;28;19919;-53
2022/03/29 15:20:07;;;;;;;;;;;;;;;;;;5049791;28;19912;-54
2022/03/29 15:22:32;;;;;;;;;;;;;;;;;;5042383;28;19913;-52
2022/03/29 15:24:58;;;;;;;;;;;;;;;;;;5049607;28;19936;-52
2022/03/29 15:27:23;;;;;;;;;;;;;;;;;;5050498;28;20232;-52
2022/03/29 15:29:48;;;;;;;;;;;;;;;;;;5073733;28;19914;-52
2022/03/29 15:32:14;;;;;;;;;;;;;;;;;;5053366;28;19920;-51
2022/03/29 15:34:40;;;;;;;;;;;;;;;;;;5056698;28;19909;-51
2022/03/29 15:37:05;;;;;;;;;;;;;;;;;;5039082;28;20256;-53
2022/03/29 15:39:30;;;;;;;;;;;;;;;;;;5050813;28;19917;-55
2022/03/29 15:41:55;;;;;;;;;;;;;;;;;;5058325;28;19912;-52
2022/03/29 15:44:21;;;;;;;;;;;;;;;;;;5061867;28;19924;-55
2022/03/29 15:46:47;;;;;;;;;;;;;;;;;;5063486;28;19929;-52
2022/03/29 15:49:12;;;;;;;;;;;;;;;;;;5043364;28;19920;-52
2022/03/29 15:51:37;;;;;;;;;;;;;;;;;;5069461;28;19908;-53
2022/03/29 15:54:02;;;;;;;;;;;;;;;;;;5043752;28;19913;-54
2022/03/29 15:56:27;;;;;;;;;;;;;;;;;;5046943;28;20355;-54
2022/03/29 15:58:54;;;;;;;;;;;;;;;;;;5051110;28;19927;-52
2022/03/29 16:01:19;;;;;;;;;;;;;;;;;;5045922;28;19948;-53
2022/03/29 16:03:45;;;;;;;;;;;;;;;;;;5042908;28;19920;-54
2022/03/29 16:06:10;;;;;;;;;;;;;;;;;;5039203;28;20368;-54
2022/03/29 16:08:37;;;;;;;;;;;;;;;;;;5055822;28;19912;-53
2022/03/29 16:11:02;;;;;;;;;;;;;;;;;;5048601;28;19917;-52
2022/03/29 16:13:27;;;;;;;;;;;;;;;;;;5050870;28;20290;-55
2022/03/29 16:15:52;;;;;;;;;;;;;;;;;;5050039;28;19912;-52
2022/03/29 16:18:17;;;;;;;;;;;;;;;;;;5068179;28;19916;-55
2022/03/29 16:20:43;;;;;;;;;;;;;;;;;;5044936;28;20312;-52
2022/03/29 16:23:09;;;;;;;;;;;;;;;;;;5038989;28;19970;-52
2022/03/29 16:25:35;;;;;;;;;;;;;;;;;;5061362;28;19924;-52
2022/03/29 16:28:00;;;;;;;;;;;;;;;;;;5062918;28;19946;-52
2022/03/29 16:30:27;;;;;;;;;;;;;;;;;;5067752;28;20019;-52
2022/03/29 16:32:53;;;;;;;;;;;;;;;;;;5056783;28;19912;-53
2022/03/29 16:35:18;;;;;;;;;;;;;;;;;;5039654;28;20295;-53
2022/03/29 16:37:43;;;;;;;;;;;;;;;;;;5040216;28;19917;-52
2022/03/29 16:40:08;;;;;;;;;;;;;;;;;;5044787;28;19924;-53